createdAt,value
2018-05-24T00:00:56.301Z,18.80
2018-05-24T00:03:23.805Z,18.70
2018-05-24T00:05:51.312Z,18.70
2018-05-24T00:08:18.848Z,18.70
2018-05-24T00:10:47.151Z,18.70
2018-05-24T00:13:14.651Z,18.50
2018-05-24T00:15:42.186Z,18.40
2018-05-24T00:18:09.705Z,18.40
2018-05-24T00:20:37.994Z,18.40
2018-05-24T00:23:06.255Z,18.50
2018-05-24T00:25:34.352Z,18.50
2018-05-24T00:28:01.845Z,18.50
2018-05-24T00:30:29.370Z,18.50
2018-05-24T00:32:56.945Z,18.40
2018-05-24T00:35:24.442Z,18.40
2018-05-24T00:37:51.958Z,18.40
2018-05-24T00:40:19.458Z,18.40
2018-05-24T00:42:46.964Z,18.40
2018-05-24T00:45:14.470Z,18.30
2018-05-24T00:47:41.973Z,18.30
2018-05-24T00:50:10.239Z,18.20
2018-05-24T00:52:38.520Z,18.20
2018-05-24T00:55:18.843Z,18.20
2018-05-24T00:57:46.749Z,18.10
2018-05-24T01:00:15.023Z,18.00
2018-05-24T01:02:43.395Z,18.00
2018-05-24T01:05:10.910Z,18.00
2018-05-24T01:07:38.397Z,18.00
2018-05-24T01:10:05.918Z,18.00
2018-05-24T01:12:33.428Z,17.90
2018-05-24T01:15:01.089Z,17.90
2018-05-24T01:17:28.589Z,17.80
2018-05-24T01:19:56.092Z,17.90
2018-05-24T01:22:23.591Z,17.80
2018-05-24T01:24:51.569Z,17.80
2018-05-24T01:27:19.064Z,17.70
2018-05-24T01:29:46.573Z,17.70
2018-05-24T01:32:14.833Z,17.60
2018-05-24T01:34:42.338Z,17.60
2018-05-24T01:37:21.619Z,17.60
2018-05-24T01:39:49.176Z,17.60
2018-05-24T01:42:16.664Z,17.50
2018-05-24T01:44:44.941Z,17.40
2018-05-24T01:47:13.217Z,17.40
2018-05-24T01:49:41.501Z,17.40
2018-05-24T01:52:09.013Z,17.50
2018-05-24T01:54:36.659Z,17.40
2018-05-24T01:57:04.176Z,17.40
2018-05-24T01:59:31.681Z,17.40
2018-05-24T02:01:59.176Z,17.40
2018-05-24T02:04:27.441Z,17.30
2018-05-24T02:06:54.941Z,17.30
2018-05-24T02:09:22.445Z,17.30
2018-05-24T02:11:49.971Z,17.20
2018-05-24T02:14:17.461Z,17.30
2018-05-24T02:16:45.028Z,17.20
2018-05-24T02:19:12.543Z,17.20
2018-05-24T02:21:40.046Z,17.10
2018-05-24T02:24:07.541Z,17.10
2018-05-24T02:26:35.799Z,17.10
2018-05-24T02:29:03.863Z,17.10
2018-05-24T02:31:31.327Z,17.10
2018-05-24T02:33:58.864Z,17.00
2018-05-24T02:36:26.366Z,16.90
2018-05-24T02:38:54.646Z,16.80
2018-05-24T02:41:22.918Z,16.80
2018-05-24T02:43:51.189Z,16.80
2018-05-24T02:46:19.461Z,16.70
2018-05-24T02:48:48.155Z,16.80
2018-05-24T02:51:16.429Z,16.60
2018-05-24T02:53:44.691Z,16.70
2018-05-24T02:56:12.246Z,16.70
2018-05-24T02:58:39.743Z,16.60
2018-05-24T03:01:07.281Z,16.60
2018-05-24T03:03:35.574Z,16.60
2018-05-24T03:06:03.160Z,16.60
2018-05-24T03:08:30.674Z,16.60
2018-05-24T03:10:58.955Z,16.60
2018-05-24T03:13:27.216Z,16.60
2018-05-24T03:15:54.715Z,16.50
2018-05-24T03:18:22.221Z,16.50
2018-05-24T03:20:49.716Z,16.50
2018-05-24T03:23:17.977Z,16.50
2018-05-24T03:25:46.264Z,16.50
2018-05-24T03:28:14.533Z,16.50
2018-05-24T03:30:42.789Z,16.50
2018-05-24T03:33:10.741Z,16.50
2018-05-24T03:35:39.734Z,16.50
2018-05-24T03:38:07.247Z,16.50
2018-05-24T03:40:35.500Z,16.50
2018-05-24T03:43:03.585Z,16.50
2018-05-24T03:45:31.849Z,16.50
2018-05-24T03:47:59.340Z,16.60
2018-05-24T03:50:26.856Z,16.50
2018-05-24T03:52:54.351Z,16.50
2018-05-24T03:55:21.871Z,16.50
2018-05-24T03:57:49.444Z,16.60
2018-05-24T04:00:28.878Z,16.50
2018-05-24T04:03:08.593Z,16.60
2018-05-24T04:05:36.101Z,16.60
2018-05-24T04:08:04.378Z,16.60
2018-05-24T04:10:32.649Z,16.60
2018-05-24T04:13:00.921Z,16.60
2018-05-24T04:15:29.274Z,16.70
2018-05-24T04:17:56.776Z,16.70
2018-05-24T04:20:24.325Z,16.70
2018-05-24T04:22:52.622Z,16.60
2018-05-24T04:25:20.133Z,16.70
2018-05-24T04:27:47.642Z,16.60
2018-05-24T04:30:15.143Z,16.70
2018-05-24T04:32:42.680Z,16.70
2018-05-24T04:35:10.181Z,16.70
2018-05-24T04:37:37.755Z,16.70
2018-05-24T04:40:06.021Z,16.80
2018-05-24T04:42:33.584Z,16.80
2018-05-24T04:45:01.167Z,16.80
2018-05-24T04:47:29.442Z,16.80
2018-05-24T04:49:57.697Z,16.80
2018-05-24T04:52:25.205Z,16.80
2018-05-24T04:54:52.709Z,16.70
2018-05-24T04:57:20.377Z,16.80
2018-05-24T04:59:47.913Z,16.80
2018-05-24T05:02:15.629Z,16.90
2018-05-24T05:04:43.133Z,16.90
2018-05-24T05:07:10.639Z,17.00
2018-05-24T05:09:38.907Z,17.10
2018-05-24T05:12:07.178Z,17.10
2018-05-24T05:14:35.486Z,17.20
2018-05-24T05:17:03.734Z,17.30
2018-05-24T05:19:32.087Z,17.30
2018-05-24T05:21:59.528Z,17.30
2018-05-24T05:24:27.071Z,17.40
2018-05-24T05:26:55.076Z,17.50
2018-05-24T05:29:22.668Z,17.40
2018-05-24T05:31:50.945Z,17.50
2018-05-24T05:34:19.217Z,17.60
2018-05-24T05:36:47.503Z,17.60
2018-05-24T05:39:15.775Z,17.70
2018-05-24T05:41:48.077Z,17.80
2018-05-24T05:44:15.569Z,17.90
2018-05-24T05:46:43.074Z,17.90
2018-05-24T05:49:10.570Z,18.00
2018-05-24T05:51:38.081Z,18.00
2018-05-24T05:54:06.401Z,18.20
2018-05-24T05:56:33.980Z,18.20
2018-05-24T05:59:01.474Z,18.30
2018-05-24T06:01:30.022Z,18.40
2018-05-24T06:03:58.444Z,18.60
2018-05-24T06:06:26.700Z,18.80
2018-05-24T06:08:54.213Z,18.70
2018-05-24T06:11:21.790Z,18.80
2018-05-24T06:13:49.579Z,19.00
2018-05-24T06:16:17.033Z,18.90
2018-05-24T06:18:44.546Z,18.90
2018-05-24T06:21:12.041Z,19.00
2018-05-24T06:23:39.550Z,19.20
2018-05-24T06:26:07.043Z,19.20
2018-05-24T06:28:34.667Z,19.30
2018-05-24T06:31:02.073Z,19.30
2018-05-24T06:33:29.734Z,18.90
2018-05-24T06:35:57.429Z,18.90
2018-05-24T06:38:25.700Z,18.80
2018-05-24T06:40:53.303Z,18.80
2018-05-24T06:43:21.536Z,18.60
2018-05-24T06:45:49.048Z,18.60
2018-05-24T06:48:16.552Z,18.70
2018-05-24T06:50:44.165Z,18.90
2018-05-24T06:53:11.673Z,19.00
2018-05-24T06:55:39.189Z,19.20
2018-05-24T06:58:06.716Z,19.30
2018-05-24T07:00:34.368Z,19.40
2018-05-24T07:03:02.638Z,19.60
2018-05-24T07:05:31.382Z,19.90
2018-05-24T07:07:58.893Z,19.90
2018-05-24T07:10:27.153Z,20.40
2018-05-24T07:12:54.660Z,20.40
2018-05-24T07:15:22.196Z,20.60
2018-05-24T07:17:50.457Z,20.80
2018-05-24T07:20:18.757Z,20.70
2018-05-24T07:22:46.296Z,20.70
2018-05-24T07:25:14.553Z,20.60
2018-05-24T07:27:42.045Z,20.60
2018-05-24T07:30:09.626Z,20.60
2018-05-24T07:32:37.359Z,20.70
2018-05-24T07:35:05.743Z,20.90
2018-05-24T07:37:34.129Z,20.90
2018-05-24T07:40:02.987Z,20.80
2018-05-24T07:42:30.490Z,20.90
2018-05-24T07:44:58.063Z,20.90
2018-05-24T07:47:26.474Z,21.30
2018-05-24T07:49:53.981Z,21.30
2018-05-24T07:52:21.476Z,21.60
2018-05-24T07:54:49.099Z,21.90
2018-05-24T07:57:17.348Z,22.50
2018-05-24T07:59:44.861Z,22.50
2018-05-24T08:02:13.069Z,22.60
2018-05-24T08:04:41.177Z,22.70
2018-05-24T08:07:09.530Z,22.70
2018-05-24T08:09:37.125Z,22.70
2018-05-24T08:12:04.761Z,22.80
2018-05-24T08:14:33.031Z,22.40
2018-05-24T08:17:01.321Z,22.20
2018-05-24T08:19:29.673Z,22.00
2018-05-24T08:21:57.184Z,22.00
2018-05-24T08:24:25.590Z,22.30
2018-05-24T08:26:53.107Z,22.50
2018-05-24T08:29:21.552Z,23.30
2018-05-24T08:31:49.152Z,23.30
2018-05-24T08:34:17.460Z,24.00
2018-05-24T08:36:44.953Z,24.00
2018-05-24T08:39:12.468Z,24.20
2018-05-24T08:41:39.989Z,24.30
2018-05-24T08:44:07.490Z,24.20
2018-05-24T08:46:35.044Z,24.20
2018-05-24T08:49:02.552Z,24.30
2018-05-24T08:51:30.073Z,24.40
2018-05-24T08:53:57.597Z,24.40
2018-05-24T08:56:25.892Z,25.10
2018-05-24T08:58:53.405Z,25.10
2018-05-24T09:01:22.632Z,25.70
2018-05-24T09:03:49.972Z,25.70
2018-05-24T09:06:18.283Z,26.20
2018-05-24T09:08:45.784Z,26.20
2018-05-24T09:11:13.445Z,26.20
2018-05-24T09:13:40.958Z,26.10
2018-05-24T09:16:08.456Z,26.00
2018-05-24T09:18:35.960Z,26.00
2018-05-24T09:21:04.239Z,26.00
2018-05-24T09:23:32.518Z,26.10
2018-05-24T09:26:00.981Z,26.10
2018-05-24T09:28:28.479Z,26.10
2018-05-24T09:30:56.008Z,26.10
2018-05-24T09:33:24.260Z,26.10
2018-05-24T09:35:51.834Z,26.00
2018-05-24T09:38:20.143Z,26.30
2018-05-24T09:40:47.781Z,26.30
2018-05-24T09:43:16.156Z,26.30
2018-05-24T09:45:44.417Z,25.90
2018-05-24T09:48:13.433Z,25.20
2018-05-24T09:50:41.733Z,24.60
2018-05-24T09:53:09.289Z,24.50
2018-05-24T09:55:36.818Z,24.50
2018-05-24T09:58:05.846Z,24.50
2018-05-24T10:00:33.381Z,24.40
2018-05-24T10:03:00.872Z,24.50
2018-05-24T10:05:28.577Z,24.30
2018-05-24T10:07:56.095Z,24.30
2018-05-24T10:10:23.613Z,24.30
2018-05-24T10:12:52.615Z,24.40
2018-05-24T10:15:20.900Z,24.40
2018-05-24T10:17:49.294Z,24.50
2018-05-24T10:20:16.962Z,24.50
2018-05-24T10:22:44.451Z,24.70
2018-05-24T10:25:12.697Z,24.80
2018-05-24T10:27:40.316Z,24.90
2018-05-24T10:30:07.843Z,24.90
2018-05-24T10:32:35.340Z,24.80
2018-05-24T10:35:02.843Z,24.80
2018-05-24T10:37:30.412Z,24.90
2018-05-24T10:39:57.941Z,25.20
2018-05-24T10:42:26.213Z,25.30
2018-05-24T10:44:54.513Z,25.60
2018-05-24T10:47:22.013Z,25.60
2018-05-24T10:49:49.518Z,25.70
2018-05-24T10:52:17.161Z,25.70
2018-05-24T10:54:44.702Z,25.30
2018-05-24T10:57:12.327Z,25.30
2018-05-24T10:59:39.893Z,25.20
2018-05-24T11:02:07.335Z,25.10
2018-05-24T11:04:34.901Z,24.90
2018-05-24T11:07:02.405Z,24.90
2018-05-24T11:09:30.013Z,24.70
2018-05-24T11:11:57.619Z,24.70
2018-05-24T11:14:25.116Z,24.70
2018-05-24T11:16:53.241Z,24.70
2018-05-24T11:19:20.756Z,24.80
2018-05-24T11:21:48.250Z,24.70
2018-05-24T11:24:15.778Z,24.80
2018-05-24T11:26:43.309Z,24.90
2018-05-24T11:29:11.601Z,24.90
2018-05-24T11:31:39.867Z,24.90
2018-05-24T11:34:08.135Z,25.00
2018-05-24T11:36:36.434Z,24.90
2018-05-24T11:39:05.568Z,24.90
2018-05-24T11:41:33.077Z,24.90
2018-05-24T11:44:01.372Z,24.80
2018-05-24T11:46:28.873Z,24.80
2018-05-24T11:48:56.373Z,24.80
2018-05-24T11:51:25.417Z,24.60
2018-05-24T11:53:52.915Z,24.60
2018-05-24T11:56:20.429Z,24.40
2018-05-24T11:58:47.917Z,24.40
2018-05-24T12:01:15.450Z,24.30
2018-05-24T12:03:42.957Z,24.30
2018-05-24T12:06:11.220Z,24.20
2018-05-24T12:08:38.761Z,24.20
2018-05-24T12:11:06.266Z,24.20
2018-05-24T12:13:33.786Z,24.20
2018-05-24T12:16:02.158Z,23.90
2018-05-24T12:18:29.740Z,24.00
2018-05-24T12:20:57.294Z,24.00
2018-05-24T12:23:24.857Z,24.20
2018-05-24T12:25:52.362Z,24.20
2018-05-24T12:28:19.878Z,24.20
2018-05-24T12:30:47.409Z,24.40
2018-05-24T12:33:14.933Z,24.40
2018-05-24T12:35:42.546Z,24.60
2018-05-24T12:38:10.749Z,24.60
2018-05-24T12:40:39.116Z,24.70
2018-05-24T12:43:06.649Z,24.70
2018-05-24T12:45:34.187Z,24.30
2018-05-24T12:48:01.687Z,24.30
2018-05-24T12:50:33.484Z,23.90
2018-05-24T12:53:00.995Z,23.50
2018-05-24T12:55:28.514Z,23.50
2018-05-24T12:57:56.078Z,23.50
2018-05-24T13:00:23.601Z,23.40
2018-05-24T13:02:51.902Z,23.10
2018-05-24T13:05:19.417Z,22.90
2018-05-24T13:07:46.949Z,22.80
2018-05-24T13:10:14.450Z,22.80
2018-05-24T13:12:43.517Z,23.00
2018-05-24T13:15:11.025Z,23.00
2018-05-24T13:17:38.602Z,23.00
2018-05-24T13:20:06.169Z,23.10
2018-05-24T13:22:33.695Z,23.10
2018-05-24T13:25:02.518Z,23.20
2018-05-24T13:27:30.046Z,23.20
2018-05-24T13:29:58.338Z,23.60
2018-05-24T13:32:25.970Z,23.90
2018-05-24T13:34:54.298Z,24.10
2018-05-24T13:37:21.823Z,24.10
2018-05-24T13:39:50.112Z,24.30
2018-05-24T13:42:18.202Z,24.30
2018-05-24T13:44:46.001Z,24.40
2018-05-24T13:47:13.544Z,24.50
2018-05-24T13:49:41.083Z,24.20
2018-05-24T13:52:08.719Z,24.20
2018-05-24T13:54:36.230Z,24.10
2018-05-24T13:57:04.731Z,24.10
2018-05-24T13:59:32.237Z,24.30
2018-05-24T14:01:59.840Z,24.40
2018-05-24T14:04:27.359Z,24.60
2018-05-24T14:06:54.889Z,24.70
2018-05-24T14:09:23.273Z,24.90
2018-05-24T14:11:50.767Z,24.90
2018-05-24T14:14:18.293Z,24.80
2018-05-24T14:16:45.801Z,24.90
2018-05-24T14:19:13.355Z,25.00
2018-05-24T14:21:40.927Z,25.10
2018-05-24T14:24:08.594Z,24.90
2018-05-24T14:26:36.093Z,24.80
2018-05-24T14:29:05.315Z,24.80
2018-05-24T14:31:32.825Z,25.00
2018-05-24T14:34:00.341Z,25.00
2018-05-24T14:36:27.841Z,25.10
2018-05-24T14:38:55.353Z,25.20
2018-05-24T14:41:22.881Z,25.30
2018-05-24T14:43:51.156Z,25.30
2018-05-24T14:46:19.449Z,25.20
2018-05-24T14:48:46.962Z,25.20
2018-05-24T14:51:14.543Z,25.20
2018-05-24T14:53:42.079Z,25.30
2018-05-24T14:56:09.593Z,25.50
2018-05-24T14:58:37.092Z,25.80
2018-05-24T15:01:04.618Z,26.00
2018-05-24T15:03:36.365Z,26.10
2018-05-24T15:06:04.705Z,25.60
2018-05-24T15:08:32.223Z,25.60
2018-05-24T15:10:59.739Z,25.10
2018-05-24T15:13:39.765Z,24.80
2018-05-24T15:16:07.296Z,24.80
2018-05-24T15:18:34.818Z,24.70
2018-05-24T15:21:03.710Z,24.50
2018-05-24T15:23:32.021Z,24.30
2018-05-24T15:25:59.526Z,24.20
2018-05-24T15:28:27.041Z,24.30
2018-05-24T15:30:54.554Z,24.30
2018-05-24T15:33:23.621Z,24.40
2018-05-24T15:35:51.085Z,24.40
2018-05-24T15:38:18.664Z,24.20
2018-05-24T15:40:46.213Z,23.80
2018-05-24T15:43:13.743Z,23.70
2018-05-24T15:45:41.254Z,23.80
2018-05-24T15:48:10.426Z,23.90
2018-05-24T15:50:37.953Z,23.90
2018-05-24T15:53:05.473Z,24.00
2018-05-24T15:55:33.782Z,24.30
2018-05-24T15:58:01.282Z,24.30
2018-05-24T16:00:28.801Z,24.40
2018-05-24T16:02:56.318Z,24.40
2018-05-24T16:05:24.604Z,24.60
2018-05-24T16:07:52.877Z,24.70
2018-05-24T16:10:21.174Z,24.70
2018-05-24T16:12:48.711Z,24.70
2018-05-24T16:15:17.025Z,24.70
2018-05-24T16:17:48.660Z,24.70
2018-05-24T16:20:16.188Z,24.70
2018-05-24T16:22:43.692Z,24.70
2018-05-24T16:25:11.184Z,24.60
2018-05-24T16:27:38.715Z,24.40
2018-05-24T16:30:06.263Z,24.20
2018-05-24T16:32:33.845Z,24.00
2018-05-24T16:35:02.291Z,23.90
2018-05-24T16:37:30.569Z,24.00
2018-05-24T16:39:58.930Z,24.00
2018-05-24T16:42:27.321Z,24.00
2018-05-24T16:44:55.669Z,24.00
2018-05-24T16:47:23.282Z,24.00
2018-05-24T16:49:55.758Z,24.00
2018-05-24T16:52:23.285Z,24.00
2018-05-24T16:54:50.788Z,24.10
2018-05-24T16:57:18.367Z,24.00
2018-05-24T16:59:45.880Z,23.80
2018-05-24T17:02:14.158Z,23.80
2018-05-24T17:04:42.557Z,23.70
2018-05-24T17:07:10.061Z,23.70
2018-05-24T17:09:37.575Z,23.60
2018-05-24T17:12:05.092Z,23.50
2018-05-24T17:14:32.630Z,23.50
2018-05-24T17:17:00.133Z,23.50
2018-05-24T17:19:28.629Z,23.50
2018-05-24T17:21:56.182Z,23.50
2018-05-24T17:24:27.607Z,23.60
2018-05-24T17:26:55.255Z,23.60
2018-05-24T17:29:22.769Z,23.50
2018-05-24T17:31:50.369Z,23.40
2018-05-24T17:34:17.929Z,23.30
2018-05-24T17:36:45.464Z,23.30
2018-05-24T17:39:13.604Z,23.40
2018-05-24T17:41:41.125Z,23.40
2018-05-24T17:44:08.714Z,23.40
2018-05-24T17:46:37.013Z,23.20
2018-05-24T17:49:04.526Z,23.20
2018-05-24T17:51:32.102Z,23.20
2018-05-24T17:54:00.522Z,22.90
2018-05-24T17:56:28.070Z,22.90
2018-05-24T17:58:55.603Z,22.90
2018-05-24T18:01:23.926Z,22.90
2018-05-24T18:03:51.575Z,22.90
2018-05-24T18:06:19.093Z,22.90
2018-05-24T18:08:46.605Z,23.00
2018-05-24T18:11:14.120Z,22.90
2018-05-24T18:13:42.446Z,22.90
2018-05-24T18:16:09.964Z,22.90
2018-05-24T18:18:38.260Z,22.70
2018-05-24T18:21:05.830Z,22.70
2018-05-24T18:23:33.329Z,22.70
2018-05-24T18:26:00.882Z,22.70
2018-05-24T18:28:28.401Z,22.70
2018-05-24T18:30:55.963Z,22.60
2018-05-24T18:33:23.510Z,22.70
2018-05-24T18:35:51.057Z,22.70
2018-05-24T18:38:19.325Z,22.70
2018-05-24T18:40:47.625Z,22.70
2018-05-24T18:43:15.171Z,22.70
2018-05-24T18:45:43.457Z,22.70
2018-05-24T18:48:11.744Z,22.70
2018-05-24T18:50:39.243Z,22.60
2018-05-24T18:53:06.777Z,22.60
2018-05-24T18:55:34.289Z,22.70
2018-05-24T18:58:02.914Z,22.60
2018-05-24T19:00:30.421Z,22.70
2018-05-24T19:02:57.921Z,22.70
2018-05-24T19:05:25.495Z,22.70
2018-05-24T19:07:53.075Z,22.70
2018-05-24T19:10:20.586Z,22.70
2018-05-24T19:12:48.910Z,22.60
2018-05-24T19:15:16.432Z,22.60
2018-05-24T19:17:45.534Z,22.60
2018-05-24T19:20:13.065Z,22.60
2018-05-24T19:22:40.576Z,22.60
2018-05-24T19:25:08.090Z,22.60
2018-05-24T19:27:36.389Z,22.60
2018-05-24T19:30:03.913Z,22.60
2018-05-24T19:32:31.424Z,22.50
2018-05-24T19:34:58.928Z,22.50
2018-05-24T19:37:26.447Z,22.50
2018-05-24T19:39:54.041Z,22.50
2018-05-24T19:42:21.581Z,22.50
2018-05-24T19:44:49.097Z,22.50
2018-05-24T19:47:17.371Z,22.50
2018-05-24T19:49:44.955Z,22.50
2018-05-24T19:52:12.482Z,22.50
2018-05-24T19:54:40.765Z,22.50
2018-05-24T19:57:09.032Z,22.50
2018-05-24T19:59:37.328Z,22.50
2018-05-24T20:02:05.720Z,22.50
2018-05-24T20:04:33.258Z,22.50
2018-05-24T20:07:01.531Z,22.40
2018-05-24T20:09:30.191Z,22.50
2018-05-24T20:11:57.735Z,22.40
2018-05-24T20:14:25.245Z,22.50
2018-05-24T20:16:53.512Z,22.50
2018-05-24T20:19:22.397Z,22.50
2018-05-24T20:21:51.164Z,22.40
2018-05-24T20:24:18.693Z,22.50
2018-05-24T20:26:46.213Z,22.50
2018-05-24T20:29:14.515Z,22.50
2018-05-24T20:31:42.016Z,22.40
2018-05-24T20:34:09.520Z,22.50
2018-05-24T20:36:37.302Z,22.50
2018-05-24T20:39:06.672Z,22.40
2018-05-24T20:41:34.190Z,22.50
2018-05-24T20:44:02.664Z,22.40
2018-05-24T20:46:30.169Z,22.50
2018-05-24T20:48:58.448Z,22.40
2018-05-24T20:51:26.757Z,22.40
2018-05-24T20:53:54.280Z,22.40
2018-05-24T20:56:22.252Z,22.40
2018-05-24T20:58:49.734Z,22.40
2018-05-24T21:01:17.237Z,22.40
2018-05-24T21:03:44.753Z,22.40
2018-05-24T21:06:12.271Z,22.40
2018-05-24T21:08:39.797Z,22.40
2018-05-24T21:11:07.300Z,22.40
2018-05-24T21:13:35.668Z,22.40
2018-05-24T21:16:03.171Z,22.40
2018-05-24T21:18:34.839Z,22.40
2018-05-24T21:21:02.351Z,22.40
2018-05-24T21:23:29.876Z,22.40
2018-05-24T21:25:57.409Z,22.40
2018-05-24T21:28:24.939Z,22.40
2018-05-24T21:30:53.227Z,22.40
2018-05-24T21:33:21.504Z,22.40
2018-05-24T21:35:49.795Z,22.40
2018-05-24T21:38:17.317Z,22.30
2018-05-24T21:40:44.842Z,22.30
2018-05-24T21:43:12.860Z,22.30
2018-05-24T21:45:41.269Z,22.30
2018-05-24T21:48:08.789Z,22.30
2018-05-24T21:50:36.306Z,22.30
2018-05-24T21:53:03.825Z,22.20
2018-05-24T21:55:32.108Z,22.20
2018-05-24T21:57:59.621Z,22.20
2018-05-24T22:00:27.212Z,22.20
2018-05-24T22:02:55.483Z,22.20
2018-05-24T22:05:23.750Z,22.20
2018-05-24T22:07:51.384Z,22.10
2018-05-24T22:10:18.910Z,22.20
2018-05-24T22:12:46.413Z,22.20
2018-05-24T22:15:13.921Z,22.10
2018-05-24T22:17:41.428Z,22.10
2018-05-24T22:20:08.923Z,22.10
2018-05-24T22:22:37.206Z,22.10
2018-05-24T22:25:05.491Z,22.00
2018-05-24T22:27:33.012Z,22.00
2018-05-24T22:30:00.570Z,22.00
2018-05-24T22:32:28.113Z,22.00
2018-05-24T22:34:55.606Z,22.00
2018-05-24T22:37:23.130Z,21.90
2018-05-24T22:39:50.647Z,21.90
2018-05-24T22:42:18.172Z,21.90
2018-05-24T22:44:45.683Z,21.90
2018-05-24T22:47:13.265Z,21.90
2018-05-24T22:49:40.786Z,21.90
2018-05-24T22:52:09.051Z,21.80
2018-05-24T22:54:37.388Z,21.80
2018-05-24T22:57:04.883Z,21.80
2018-05-24T22:59:33.149Z,21.70
2018-05-24T23:02:00.658Z,21.70
2018-05-24T23:04:28.154Z,21.60
2018-05-24T23:06:55.824Z,21.60
2018-05-24T23:09:23.325Z,21.60
2018-05-24T23:11:50.902Z,21.50
2018-05-24T23:14:18.992Z,21.30
2018-05-24T23:16:46.590Z,21.30
2018-05-24T23:19:14.854Z,21.30
2018-05-24T23:21:42.364Z,21.20
2018-05-24T23:24:09.873Z,21.30
2018-05-24T23:26:37.377Z,21.30
2018-05-24T23:29:04.901Z,21.10
2018-05-24T23:31:33.155Z,21.00
2018-05-24T23:34:00.702Z,21.00
2018-05-24T23:36:28.205Z,21.00
2018-05-24T23:38:56.470Z,21.00
2018-05-24T23:41:25.213Z,21.00
2018-05-24T23:43:52.717Z,20.90
2018-05-24T23:46:21.133Z,20.80
2018-05-24T23:48:48.640Z,20.70
2018-05-24T23:51:16.140Z,20.80
2018-05-24T23:53:43.640Z,20.70
2018-05-24T23:56:11.149Z,20.60
2018-05-24T23:58:38.658Z,20.60
